Time;durP1;ratioP1;P1;durP2;ratioP2;P2;SDS_P1;SDS_P2;PMS_P1;PMS_P2;Temp;Humidity;BMP_temperature;BMP_pressure;BME280_temperature;BME280_humidity;BME280_pressure;Samples;Min_cycle;Max_cycle;Signal;HPM_P1;HPM_P2
2021/10/08 00:01:14;;;;;;;1999.90;999.90;;;;;;;14.99;76.56;102629.47;15644958;28;20045;-77
2021/10/08 00:08:48;;;;;;;1999.90;999.90;;;;;;;15.29;75.36;102630.72;15678206;28;20442;-76
2021/10/08 00:16:21;;;;;;;1999.90;999.90;;;;;;;15.26;75.10;102625.75;15679401;28;20076;-75
2021/10/08 00:23:55;;;;;;;1999.90;999.90;;;;;;;15.33;74.01;102632.91;15680717;28;20523;-77
2021/10/08 00:31:28;;;;;;;1999.90;999.90;;;;;;;15.18;74.36;102625.69;15698533;28;20052;-77
2021/10/08 00:39:02;;;;;;;1999.90;999.90;;;;;;;14.92;73.88;102622.66;15720021;28;20037;-77
2021/10/08 00:46:34;;;;;;;1999.90;999.90;;;;;;;14.62;74.57;102622.19;15738087;28;20079;-77
2021/10/08 00:54:08;;;;;;;1999.90;999.90;;;;;;;14.46;74.14;102626.47;15745594;28;20059;-77
2021/10/08 01:01:40;;;;;;;1999.90;999.90;;;;;;;14.29;74.02;102621.47;15735605;28;20062;-78
2021/10/08 01:09:14;;;;;;;1999.90;999.90;;;;;;;14.12;74.40;102626.84;15747187;28;20044;-77
2021/10/08 01:16:46;;;;;;;1999.90;999.90;;;;;;;13.88;74.62;102624.25;15720846;28;20067;-77
2021/10/08 01:24:20;;;;;;;1999.90;999.90;;;;;;;13.76;74.64;102626.72;15722557;28;20063;-78
2021/10/08 01:31:53;;;;;;;1999.90;999.90;;;;;;;13.67;74.08;102620.97;15688595;28;20543;-77
2021/10/08 01:39:27;;;;;;;1999.90;999.90;;;;;;;13.57;74.49;102629.56;15668710;28;20037;-77
2021/10/08 01:47:01;;;;;;;1999.90;999.90;;;;;;;13.25;75.34;102620.00;15651308;28;20424;-76
2021/10/08 01:54:38;;;;;;;1999.90;999.90;;;;;;;13.23;74.66;102630.72;15667297;28;20039;-75
2021/10/08 02:02:11;;;;;;;1999.90;999.90;;;;;;;13.15;74.43;102625.75;15667726;28;20041;-76
2021/10/08 02:09:45;;;;;;;1999.90;999.90;;;;;;;12.94;76.06;102625.22;15666525;28;20043;-75
2021/10/08 02:17:18;;;;;;;1999.90;999.90;;;;;;;13.07;75.20;102632.03;15666269;28;20128;-76
2021/10/08 02:24:52;;;;;;;;;;;;;;;12.96;74.82;102631.38;15649982;28;20041;-76
2021/10/08 02:32:25;;;;;;;1999.90;999.90;;;;;;;12.67;75.15;102631.50;15697346;28;19974;-75
2021/10/08 02:40:00;;;;;;;1999.90;999.90;;;;;;;12.47;75.71;102636.53;15727044;28;20087;-76
2021/10/08 02:47:33;;;;;;;1999.90;999.90;;;;;;;12.37;75.41;102648.69;15710865;28;20109;-75
2021/10/08 02:55:09;;;;;;;1999.90;999.90;;;;;;;12.39;75.14;102643.63;15710801;28;20048;-75
2021/10/08 03:02:42;;;;;;;1999.90;999.90;;;;;;;12.33;74.71;102653.22;15743144;28;20128;-76
2021/10/08 03:10:17;;;;;;;1999.90;999.90;;;;;;;12.34;75.29;102654.88;15726323;28;20040;-75
2021/10/08 03:17:50;;;;;;;1999.90;999.90;;;;;;;12.34;75.47;102664.13;15725722;28;20507;-75
2021/10/08 03:25:25;;;;;;;1999.90;999.90;;;;;;;12.46;76.22;102660.91;15741500;28;20132;-76
2021/10/08 03:32:57;;;;;;;1999.90;999.90;;;;;;;12.56;76.29;102666.38;15734206;28;20073;-77
2021/10/08 03:40:32;;;;;;;1999.90;999.90;;;;;;;12.52;76.29;102672.88;15756652;28;20048;-76
2021/10/08 03:48:19;;;;;;;1999.90;999.90;;;;;;;12.43;76.56;102681.09;15722486;28;20048;-76
2021/10/08 03:55:53;;;;;;;1999.90;999.90;;;;;;;12.66;76.81;102680.25;15730931;28;20110;-76
2021/10/08 04:03:25;;;;;;;1999.90;999.90;;;;;;;12.70;76.57;102674.88;15739637;28;20103;-76
2021/10/08 04:11:00;;;;;;;1999.90;999.90;;;;;;;12.69;76.92;102695.59;15721400;28;20044;-76
2021/10/08 04:18:34;;;;;;;1999.90;999.90;;;;;;;12.63;79.08;102692.06;15739865;28;20052;-76
2021/10/08 04:26:10;;;;;;;1999.90;999.90;;;;;;;12.56;80.05;102704.75;15737439;28;20094;-76
2021/10/08 04:33:42;;;;;;;1999.90;999.90;;;;;;;12.62;78.29;102709.16;15724477;28;20071;-75
2021/10/08 04:41:18;;;;;;;1999.90;999.90;;;;;;;12.36;80.68;102698.25;15738279;28;20079;-76
2021/10/08 04:48:51;;;;;;;1999.90;999.90;;;;;;;12.39;80.54;102702.41;15738582;28;20036;-76
2021/10/08 04:56:25;;;;;;;1999.90;999.90;;;;;;;12.56;79.52;102705.59;15736928;28;20055;-76
2021/10/08 05:03:58;;;;;;;1999.90;999.90;;;;;;;11.99;82.61;102714.91;15755083;28;20068;-76
2021/10/08 05:11:33;;;;;;;1999.90;999.90;;;;;;;12.10;83.12;102719.25;15761642;28;20443;-75
2021/10/08 05:19:07;;;;;;;1999.90;999.90;;;;;;;12.32;80.65;102713.97;15737161;28;20055;-76
2021/10/08 05:26:42;;;;;;;1999.90;999.90;;;;;;;12.28;81.88;102715.69;15708696;28;20040;-78
2021/10/08 05:34:16;;;;;;;1999.90;999.90;;;;;;;12.09;84.42;102721.22;15732103;28;20047;-79
2021/10/08 05:41:50;;;;;;;1999.90;999.90;;;;;;;12.31;84.34;102726.31;15739899;28;20093;-76
2021/10/08 05:49:23;;;;;;;1999.90;999.90;;;;;;;12.37;83.83;102729.88;15727601;28;20045;-75
2021/10/08 05:56:58;;;;;;;1999.90;999.90;;;;;;;12.29;84.43;102733.31;15711709;28;20423;-75
2021/10/08 06:04:30;;;;;;;1999.90;999.90;;;;;;;12.41;84.11;102739.38;15729896;28;20059;-75
2021/10/08 06:12:05;;;;;;;1999.90;999.90;;;;;;;12.56;83.63;102735.56;15730339;28;20119;-74
2021/10/08 06:19:43;;;;;;;1999.90;999.90;;;;;;;12.83;82.98;102747.00;15728488;28;20056;-76
2021/10/08 06:27:17;;;;;;;1999.90;999.90;;;;;;;12.92;82.61;102759.22;15706815;28;20106;-76
2021/10/08 06:34:50;;;;;;;1999.90;999.90;;;;;;;13.07;82.17;102760.97;15682962;28;20056;-76
2021/10/08 06:42:25;;;;;;;1999.90;999.90;;;;;;;13.21;81.79;102775.94;15665591;28;20052;-76
2021/10/08 06:50:01;;;;;;;1999.90;999.90;;;;;;;14.05;78.11;102784.47;15664955;28;20041;-76
2021/10/08 06:57:35;;;;;;;1999.90;999.90;;;;;;;14.72;74.07;102784.13;15663610;28;20055;-76
2021/10/08 07:05:09;;;;;;;1999.90;999.90;;;;;;;15.12;72.06;102796.50;15646743;28;20053;-74
2021/10/08 07:12:44;;;;;;;1999.90;999.90;;;;;;;15.80;71.14;102808.78;15646595;28;20137;-76
2021/10/08 07:20:18;;;;;;;1999.90;999.90;;;;;;;15.59;70.23;102816.84;15661964;28;20080;-76
2021/10/08 07:27:52;;;;;;;1999.90;999.90;;;;;;;16.42;67.90;102821.00;15689511;28;20032;-75
2021/10/08 07:35:25;;;;;;;1999.90;999.90;;;;;;;16.53;66.63;102824.38;15682993;22;20072;-61
2021/10/08 07:42:58;;;;;;;1999.90;999.90;;;;;;;16.59;65.26;102817.47;15616306;28;20128;-61
2021/10/08 07:50:31;;;;;;;1999.90;999.90;;;;;;;16.82;63.54;102825.88;15722504;22;20504;-60
2021/10/08 07:58:05;;;;;;;1999.90;999.90;;;;;;;17.31;63.39;102827.56;15733658;28;20036;-60
2021/10/08 08:05:37;;;;;;;1999.90;999.90;;;;;;;17.51;61.78;102835.41;15716900;28;20051;-60
2021/10/08 08:13:11;;;;;;;1999.90;999.90;;;;;;;18.02;59.84;102849.91;15734510;28;20047;-60
2021/10/08 08:20:44;;;;;;;1999.90;999.90;;;;;;;18.09;59.65;102844.59;15716337;28;20036;-61
2021/10/08 08:28:18;;;;;;;1999.90;999.90;;;;;;;18.92;57.87;102839.44;15733691;28;20053;-58
2021/10/08 08:35:50;;;;;;;1999.90;999.90;;;;;;;19.14;56.36;102848.84;15704783;28;20048;-60
2021/10/08 08:43:26;;;;;;;1999.90;999.90;;;;;;;19.77;54.44;102849.81;15729189;28;20052;-60
2021/10/08 08:50:59;;;;;;;1999.90;999.90;;;;;;;19.73;54.66;102852.50;15747878;28;20036;-61
2021/10/08 08:58:34;;;;;;;1999.90;999.90;;;;;;;20.23;52.82;102847.94;15747095;28;20040;-61
2021/10/08 09:06:09;;;;;;;1999.90;999.90;;;;;;;20.17;52.38;102845.31;15745389;28;20554;-60
2021/10/08 09:13:43;;;;;;;1999.90;999.90;;;;;;;20.26;51.56;102836.72;15710968;28;20048;-61
2021/10/08 09:21:16;;;;;;;1999.90;999.90;;;;;;;20.98;51.60;102849.44;15745126;28;20539;-61
2021/10/08 09:28:55;;;;;;;1999.90;999.90;;;;;;;20.65;50.13;102852.34;15744521;28;20456;-59
2021/10/08 09:36:36;;;;;;;1999.90;999.90;;;;;;;21.67;47.39;102835.47;15743272;28;20063;-61
2021/10/08 09:44:12;;;;;;;1999.90;999.90;;;;;;;20.12;46.31;102837.03;15726094;28;20049;-61
2021/10/08 09:51:44;;;;;;;1999.90;999.90;;;;;;;21.43;44.97;102828.66;15725963;28;20040;-61
2021/10/08 09:59:20;;;;;;;1999.90;999.90;;;;;;;20.73;43.94;102822.22;15741387;28;20052;-61
2021/10/08 10:06:52;;;;;;;1999.90;999.90;;;;;;;20.90;42.68;102822.00;15740975;28;20469;-60
2021/10/08 10:14:26;;;;;;;1999.90;999.90;;;;;;;20.72;42.39;102827.06;15723327;28;20292;-60
2021/10/08 10:22:00;;;;;;;1999.90;999.90;;;;;;;21.93;42.23;102826.53;15739207;28;20179;-61
2021/10/08 10:29:37;;;;;;;1999.90;999.90;;;;;;;22.03;42.52;102814.66;15738616;28;20397;-62
2021/10/08 10:37:11;;;;;;;1999.90;999.90;;;;;;;23.14;39.61;102822.19;15722454;28;20057;-61
2021/10/08 10:45:09;;;;;;;1999.90;999.90;;;;;;;23.25;37.51;102811.06;15738987;28;20060;-61
2021/10/08 10:52:50;;;;;;;1999.90;999.90;;;;;;;24.68;36.08;102810.06;15738484;28;20059;-61
2021/10/08 11:00:32;;;;;;;1999.90;999.90;;;;;;;24.46;36.29;102808.84;15738607;28;20134;-61
2021/10/08 11:08:08;;;;;;;1999.90;999.90;;;;;;;23.17;37.45;102806.38;15736737;28;20041;-60
2021/10/08 11:15:52;;;;;;;1999.90;999.90;;;;;;;23.94;36.05;102795.13;15702523;28;20090;-62
2021/10/08 11:23:30;;;;;;;1999.90;999.90;;;;;;;24.76;35.58;102796.75;15702126;28;20045;-61
2021/10/08 11:31:06;;;;;;;1999.90;999.90;;;;;;;24.36;37.40;102785.81;15719106;28;20062;-61
2021/10/08 11:38:38;;;;;;;1999.90;999.90;;;;;;;24.98;34.90;102792.22;15735640;28;20604;-61
2021/10/08 11:46:29;;;;;;;1999.90;999.90;;;;;;;23.40;36.70;102784.56;15718200;28;20045;-61
2021/10/08 11:54:02;;;;;;;1999.90;999.90;;;;;;;24.58;35.70;102785.00;15735414;28;20078;-60
2021/10/08 12:01:37;;;;;;;1999.90;999.90;;;;;;;25.85;34.70;102779.69;15717421;28;20469;-61
2021/10/08 12:09:18;;;;;;;1999.90;999.90;;;;;;;27.06;34.26;102774.41;15716927;28;20435;-62
2021/10/08 12:16:51;;;;;;;1999.90;999.90;;;;;;;27.01;31.31;102772.72;15735163;28;20413;-61
2021/10/08 12:24:25;;;;;;;1999.90;999.90;;;;;;;28.16;31.11;102765.56;15716647;28;20044;-61
2021/10/08 12:32:03;;;;;;;1999.90;999.90;;;;;;;26.37;31.65;102757.81;15699810;28;20354;-61
2021/10/08 12:39:39;;;;;;;1999.90;999.90;;;;;;;27.98;29.93;102768.38;15699885;28;20054;-62
2021/10/08 12:47:13;;;;;;;1999.90;999.90;;;;;;;29.83;27.08;102765.50;15733411;28;20050;-60
2021/10/08 12:55:09;;;;;;;1999.90;999.90;;;;;;;30.75;27.06;102763.31;15734096;28;20052;-60
2021/10/08 13:02:46;;;;;;;1999.90;999.90;;;;;;;28.78;28.93;102758.69;15733872;28;20049;-63
2021/10/08 13:10:20;;;;;;;1999.90;999.90;;;;;;;28.24;28.98;102747.09;15700158;28;20045;-62
2021/10/08 13:18:01;;;;;;;1999.90;999.90;;;;;;;24.54;35.59;102751.91;15732806;28;20056;-62
2021/10/08 13:25:36;;;;;;;1999.90;999.90;;;;;;;20.75;40.81;102738.41;15709623;28;20045;-60
2021/10/08 13:33:09;;;;;;;1999.90;999.90;;;;;;;20.33;41.82;102723.59;15680087;28;20041;-61
2021/10/08 13:40:42;;;;;;;1999.90;999.90;;;;;;;20.57;42.19;102714.28;15683966;28;20049;-62
2021/10/08 13:48:16;;;;;;;1999.90;999.90;;;;;;;20.40;42.00;102725.81;15680385;22;20140;-62
2021/10/08 13:55:48;;;;;;;1999.90;999.90;;;;;;;19.62;43.12;102725.81;15685913;28;20053;-62
2021/10/08 14:03:29;;;;;;;1999.90;999.90;;;;;;;19.98;42.71;102720.28;15651233;28;20041;-62
2021/10/08 14:11:02;;;;;;;1999.90;999.90;;;;;;;19.22;44.12;102724.25;15651022;28;20531;-63
2021/10/08 14:18:35;;;;;;;1999.90;999.90;;;;;;;19.33;42.65;102719.03;15666822;28;20053;-63
2021/10/08 14:26:09;;;;;;;1999.90;999.90;;;;;;;19.36;43.13;102704.16;15666797;28;20076;-62
2021/10/08 14:33:43;;;;;;;1999.90;999.90;;;;;;;18.65;44.12;102706.97;15666291;28;20037;-63
2021/10/08 14:41:16;;;;;;;1999.90;999.90;;;;;;;18.74;46.04;102699.25;15665807;28;20040;-62
2021/10/08 14:48:50;;;;;;;1999.90;999.90;;;;;;;18.59;45.95;102700.66;15682842;28;20047;-62
2021/10/08 14:56:29;;;;;;;1999.90;999.90;;;;;;;18.30;45.79;102703.44;15682412;28;20277;-62
2021/10/08 15:04:03;;;;;;;1999.90;999.90;;;;;;;18.39;46.89;102716.38;15682147;28;20045;-62
2021/10/08 15:11:38;;;;;;;1999.90;999.90;;;;;;;18.33;47.14;102702.75;15681314;28;20041;-63
2021/10/08 15:19:13;;;;;;;1999.90;999.90;;;;;;;18.31;47.66;102700.25;15680868;28;20041;-62
2021/10/08 15:26:45;;;;;;;1999.90;999.90;;;;;;;17.94;48.38;102701.88;15662601;28;20056;-62
2021/10/08 15:34:20;;;;;;;1999.90;999.90;;;;;;;17.92;49.82;102700.53;15680322;28;20060;-62
2021/10/08 15:41:52;;;;;;;1999.90;999.90;;;;;;;17.56;49.51;102698.91;15678485;28;20305;-62
2021/10/08 15:49:26;;;;;;;1999.90;999.90;;;;;;;17.38;49.67;102700.06;15680069;28;20137;-63
2021/10/08 15:56:59;;;;;;;1999.90;999.90;;;;;;;17.38;50.31;102720.66;15661498;28;20123;-63
2021/10/08 16:04:32;;;;;;;1999.90;999.90;;;;;;;17.02;51.98;102718.13;15678971;28;20493;-63
2021/10/08 16:12:05;;;;;;;1999.90;999.90;;;;;;;16.72;53.13;102737.63;15662381;28;20048;-62
2021/10/08 16:19:42;;;;;;;1999.90;999.90;;;;;;;16.77;53.22;102736.63;15678764;28;20068;-63
2021/10/08 16:27:14;;;;;;;1999.90;999.90;;;;;;;16.29;52.85;102743.03;15678823;28;20059;-62
2021/10/08 16:34:48;;;;;;;1999.90;999.90;;;;;;;16.10;51.84;102739.59;15679298;28;20041;-62
2021/10/08 16:42:21;;;;;;;1999.90;999.90;;;;;;;15.95;52.69;102754.09;15678449;28;20052;-61
2021/10/08 16:49:57;;;;;;;1999.90;999.90;;;;;;;15.86;52.64;102754.84;15678590;28;20405;-62
2021/10/08 16:57:29;;;;;;;1999.90;999.90;;;;;;;15.53;52.86;102759.03;15666646;28;20052;-63
2021/10/08 17:05:04;;;;;;;1999.90;999.90;;;;;;;15.76;54.27;102772.00;15670334;28;20083;-60
2021/10/08 17:12:37;;;;;;;1999.90;999.90;;;;;;;15.64;54.68;102773.72;15671188;28;20068;-61
2021/10/08 17:20:11;;;;;;;1999.90;999.90;;;;;;;15.45;55.84;102780.31;15688949;28;20049;-61
2021/10/08 17:27:54;;;;;;;1999.90;999.90;;;;;;;15.07;56.36;102788.16;15669736;28;20571;-63
2021/10/08 17:35:28;;;;;;;1999.90;999.90;;;;;;;14.91;56.01;102789.66;15687763;28;20106;-62
2021/10/08 17:43:01;;;;;;;1999.90;999.90;;;;;;;14.55;55.35;102784.72;15687524;28;20037;-63
2021/10/08 17:50:34;;;;;;;1999.90;999.90;;;;;;;14.38;55.49;102790.94;15654095;28;20135;-62
2021/10/08 17:58:07;;;;;;;1999.90;999.90;;;;;;;14.22;55.80;102795.13;15668586;28;20052;-60
2021/10/08 18:05:41;;;;;;;1999.90;999.90;;;;;;;14.09;55.37;102799.56;15667095;28;20045;-60
2021/10/08 18:13:18;;;;;;;1999.90;999.90;;;;;;;13.93;55.42;102794.50;15684980;28;20045;-61
2021/10/08 18:20:54;;;;;;;1999.90;999.90;;;;;;;13.94;55.25;102805.44;15682321;28;20128;-59
2021/10/08 18:28:27;;;;;;;1999.90;999.90;;;;;;;13.82;55.67;102799.44;15695000;28;20083;-60
2021/10/08 18:36:04;;;;;;;1999.90;999.90;;;;;;;13.76;56.22;102807.13;15681599;28;20563;-61
2021/10/08 18:43:36;;;;;;;1999.90;999.90;;;;;;;13.53;56.58;102808.03;15689499;28;20052;-60
2021/10/08 18:51:10;;;;;;;1999.90;999.90;;;;;;;13.36;57.00;102802.94;15706469;28;20547;-59
2021/10/08 18:58:43;;;;;;;1999.90;999.90;;;;;;;13.18;56.99;102810.16;15714221;28;20048;-60
2021/10/08 19:06:17;;;;;;;1999.90;999.90;;;;;;;13.07;57.65;102811.44;15697074;28;20051;-60
2021/10/08 19:13:55;;;;;;;1999.90;999.90;;;;;;;13.07;57.69;102819.84;15694369;28;20045;-61
2021/10/08 19:21:29;;;;;;;1999.90;999.90;;;;;;;12.90;58.04;102811.91;15670462;28;20040;-61
2021/10/08 19:29:02;;;;;;;1999.90;999.90;;;;;;;12.69;58.01;102816.91;15708275;28;20159;-61
2021/10/08 19:36:36;;;;;;;1999.90;999.90;;;;;;;12.65;58.50;102812.19;15664186;28;20051;-62
2021/10/08 19:44:13;;;;;;;1999.90;999.90;;;;;;;12.44;58.88;102814.38;15688121;28;20129;-64
2021/10/08 19:51:48;;;;;;;1999.90;999.90;;;;;;;12.39;59.83;102823.63;15656187;28;20040;-63
2021/10/08 19:59:20;;;;;;;1999.90;999.90;;;;;;;12.39;60.33;102829.25;15669889;28;20045;-58
2021/10/08 20:12:02;;;;;;;1999.90;999.90;;;;;;;12.11;60.11;102833.72;15667024;28;20037;-61
2021/10/08 20:14:51;;;;;;;1999.90;999.90;;;;;;;11.80;61.04;102826.66;15664495;28;20055;-63
2021/10/08 20:22:25;;;;;;;1999.90;999.90;;;;;;;11.82;60.55;102828.03;15651463;28;20088;-60
2021/10/08 20:29:58;;;;;;;1999.90;999.90;;;;;;;11.70;60.90;102827.53;15638711;28;20064;-58
2021/10/08 20:37:31;;;;;;;1999.90;999.90;;;;;;;11.83;60.30;102823.28;15657340;28;20041;-61
2021/10/08 20:45:04;;;;;;;;;;;;;;;11.62;60.44;102830.09;15669161;28;20508;-59
2021/10/08 20:52:38;;;;;;;1999.90;999.90;;;;;;;11.69;60.90;102827.84;15667631;28;20346;-58
2021/10/08 21:00:11;;;;;;;1999.90;999.90;;;;;;;11.32;60.52;102833.91;15656830;28;20099;-59
2021/10/08 21:07:45;;;;;;;1999.90;999.90;;;;;;;11.38;60.94;102833.59;15677310;28;20065;-59
2021/10/08 21:15:18;;;;;;;1999.90;999.90;;;;;;;11.44;60.81;102832.44;15677263;28;20099;-59
2021/10/08 21:22:52;;;;;;;1999.90;999.90;;;;;;;11.40;60.40;102825.75;15658584;28;20098;-60
2021/10/08 21:30:27;;;;;;;1999.90;999.90;;;;;;;11.24;61.23;102829.75;15676682;28;20055;-59
2021/10/08 21:38:08;;;;;;;1999.90;999.90;;;;;;;11.25;60.78;102832.28;15657756;28;20045;-62
2021/10/08 21:45:40;;;;;;;1999.90;999.90;;;;;;;11.18;60.60;102834.53;15684904;28;20044;-60
2021/10/08 21:53:14;;;;;;;1999.90;999.90;;;;;;;10.96;60.83;102831.25;15686375;28;20048;-59
2021/10/08 22:01:10;;;;;;;;;;;;;;;11.37;60.36;102834.72;15651874;28;20052;-60
2021/10/08 22:08:44;;;;;;;1999.90;999.90;;;;;;;10.85;61.73;102830.47;15685413;28;19925;-60
2021/10/08 22:16:20;;;;;;;1999.90;999.90;;;;;;;10.66;62.40;102829.38;15667555;28;20391;-60
2021/10/08 22:23:59;;;;;;;1999.90;999.90;;;;;;;10.86;62.63;102828.50;15684642;28;20053;-61
2021/10/08 22:39:23;;;;;;;1999.90;999.90;;;;;;;10.27;64.04;102821.63;15684442;28;20136;-60
2021/10/08 22:46:56;;;;;;;;;;;;;;;10.56;63.10;102821.88;15665666;28;20409;-60
2021/10/08 22:54:30;;;;;;;1999.90;999.90;;;;;;;10.32;63.30;102820.81;15682200;28;20016;-59
2021/10/08 23:02:02;;;;;;;;;;;;;;;10.04;64.09;102813.78;15682409;28;20056;-60
2021/10/08 23:09:59;;;;;;;1999.90;999.90;;;;;;;9.94;64.83;102814.63;15682218;28;19921;-60
2021/10/08 23:17:31;;;;;;;1999.90;999.90;;;;;;;9.87;65.19;102816.00;15681549;28;20552;-62
2021/10/08 23:25:07;;;;;;;1999.90;999.90;;;;;;;9.94;64.56;102817.41;15672376;28;20366;-61
2021/10/08 23:32:40;;;;;;;1999.90;999.90;;;;;;;9.95;64.93;102816.28;15677881;28;20045;-60
2021/10/08 23:40:14;;;;;;;1999.90;999.90;;;;;;;9.86;65.28;102804.00;15680856;28;20048;-59
2021/10/08 23:47:47;;;;;;;1999.90;999.90;;;;;;;9.68;65.47;102805.38;15680313;28;20140;-60
2021/10/08 23:55:21;;;;;;;1999.90;999.90;;;;;;;9.32;66.76;102804.47;15680025;28;20456;-60
